sensor_id;sensor_type;location;lat;lon;timestamp;temperature;humidity
42227;DHT22;27892;52.378;13.122;2023-12-22T00:00:44;6.90;75.70
42227;DHT22;27892;52.378;13.122;2023-12-22T00:03:13;6.80;74.60
42227;DHT22;27892;52.378;13.122;2023-12-22T00:05:39;6.80;74.50
42227;DHT22;27892;52.378;13.122;2023-12-22T00:08:05;6.80;74.60
42227;DHT22;27892;52.378;13.122;2023-12-22T00:10:31;6.70;74.30
42227;DHT22;27892;52.378;13.122;2023-12-22T00:12:57;6.80;74.80
42227;DHT22;27892;52.378;13.122;2023-12-22T00:15:23;6.80;74.50
42227;DHT22;27892;52.378;13.122;2023-12-22T00:17:48;6.70;74.70
42227;DHT22;27892;52.378;13.122;2023-12-22T00:20:14;6.60;74.30
42227;DHT22;27892;52.378;13.122;2023-12-22T00:22:40;6.60;75.00
42227;DHT22;27892;52.378;13.122;2023-12-22T00:25:06;6.80;75.30
42227;DHT22;27892;52.378;13.122;2023-12-22T00:27:35;6.70;75.30
42227;DHT22;27892;52.378;13.122;2023-12-22T00:30:01;6.70;75.90
42227;DHT22;27892;52.378;13.122;2023-12-22T00:32:27;6.60;76.20
42227;DHT22;27892;52.378;13.122;2023-12-22T00:34:52;6.70;76.90
42227;DHT22;27892;52.378;13.122;2023-12-22T00:37:18;6.70;76.60
42227;DHT22;27892;52.378;13.122;2023-12-22T00:39:44;6.70;76.80
42227;DHT22;27892;52.378;13.122;2023-12-22T00:42:10;6.80;77.70
42227;DHT22;27892;52.378;13.122;2023-12-22T00:44:36;6.80;77.30
42227;DHT22;27892;52.378;13.122;2023-12-22T00:47:02;6.80;77.80
42227;DHT22;27892;52.378;13.122;2023-12-22T00:49:27;6.70;77.70
42227;DHT22;27892;52.378;13.122;2023-12-22T00:51:53;6.70;77.90
42227;DHT22;27892;52.378;13.122;2023-12-22T00:54:19;6.70;78.50
42227;DHT22;27892;52.378;13.122;2023-12-22T00:56:44;6.70;78.60
42227;DHT22;27892;52.378;13.122;2023-12-22T00:59:10;6.60;78.30
42227;DHT22;27892;52.378;13.122;2023-12-22T01:01:35;6.70;78.90
42227;DHT22;27892;52.378;13.122;2023-12-22T01:04:01;6.60;77.90
42227;DHT22;27892;52.378;13.122;2023-12-22T01:06:27;6.70;77.90
42227;DHT22;27892;52.378;13.122;2023-12-22T01:08:52;6.70;78.70
42227;DHT22;27892;52.378;13.122;2023-12-22T01:11:18;6.70;78.50
42227;DHT22;27892;52.378;13.122;2023-12-22T01:13:44;6.70;78.40
42227;DHT22;27892;52.378;13.122;2023-12-22T01:16:10;6.70;79.50
42227;DHT22;27892;52.378;13.122;2023-12-22T01:18:35;6.80;78.70
42227;DHT22;27892;52.378;13.122;2023-12-22T01:21:01;6.80;77.70
42227;DHT22;27892;52.378;13.122;2023-12-22T01:23:27;6.80;77.80
42227;DHT22;27892;52.378;13.122;2023-12-22T01:25:53;6.80;77.90
42227;DHT22;27892;52.378;13.122;2023-12-22T01:28:18;6.90;78.00
42227;DHT22;27892;52.378;13.122;2023-12-22T01:30:44;6.80;77.50
42227;DHT22;27892;52.378;13.122;2023-12-22T01:33:09;6.80;77.40
42227;DHT22;27892;52.378;13.122;2023-12-22T01:35:35;6.90;77.60
42227;DHT22;27892;52.378;13.122;2023-12-22T01:38:01;6.80;76.70
42227;DHT22;27892;52.378;13.122;2023-12-22T01:40:26;6.80;77.80
42227;DHT22;27892;52.378;13.122;2023-12-22T01:42:52;6.90;77.80
42227;DHT22;27892;52.378;13.122;2023-12-22T01:45:18;6.80;76.90
42227;DHT22;27892;52.378;13.122;2023-12-22T01:47:45;6.80;77.00
42227;DHT22;27892;52.378;13.122;2023-12-22T01:50:11;6.90;76.90
42227;DHT22;27892;52.378;13.122;2023-12-22T01:52:39;6.80;76.60
42227;DHT22;27892;52.378;13.122;2023-12-22T01:55:09;6.90;76.80
42227;DHT22;27892;52.378;13.122;2023-12-22T01:57:36;6.80;76.50
42227;DHT22;27892;52.378;13.122;2023-12-22T02:00:02;6.90;76.60
42227;DHT22;27892;52.378;13.122;2023-12-22T02:02:30;7.00;76.40
42227;DHT22;27892;52.378;13.122;2023-12-22T02:04:58;7.00;76.00
42227;DHT22;27892;52.378;13.122;2023-12-22T02:07:27;7.10;76.10
42227;DHT22;27892;52.378;13.122;2023-12-22T02:09:53;7.20;75.80
42227;DHT22;27892;52.378;13.122;2023-12-22T02:12:19;7.20;75.30
42227;DHT22;27892;52.378;13.122;2023-12-22T02:14:45;7.20;74.70
42227;DHT22;27892;52.378;13.122;2023-12-22T02:17:15;7.40;75.00
42227;DHT22;27892;52.378;13.122;2023-12-22T02:19:48;7.40;74.10
42227;DHT22;27892;52.378;13.122;2023-12-22T02:22:14;7.40;73.70
42227;DHT22;27892;52.378;13.122;2023-12-22T02:24:40;7.40;73.70
42227;DHT22;27892;52.378;13.122;2023-12-22T02:27:28;7.30;72.80
42227;DHT22;27892;52.378;13.122;2023-12-22T02:30:18;7.30;72.90
42227;DHT22;27892;52.378;13.122;2023-12-22T02:32:49;7.30;72.60
42227;DHT22;27892;52.378;13.122;2023-12-22T02:35:19;7.20;71.50
42227;DHT22;27892;52.378;13.122;2023-12-22T02:37:46;7.30;71.80
42227;DHT22;27892;52.378;13.122;2023-12-22T02:40:14;7.30;70.90
42227;DHT22;27892;52.378;13.122;2023-12-22T02:42:40;7.30;71.30
42227;DHT22;27892;52.378;13.122;2023-12-22T02:45:10;7.30;71.80
42227;DHT22;27892;52.378;13.122;2023-12-22T02:47:37;7.40;71.30
42227;DHT22;27892;52.378;13.122;2023-12-22T02:50:03;7.30;70.10
42227;DHT22;27892;52.378;13.122;2023-12-22T02:52:29;7.30;70.30
42227;DHT22;27892;52.378;13.122;2023-12-22T02:54:57;7.40;70.20
42227;DHT22;27892;52.378;13.122;2023-12-22T02:57:23;7.40;70.30
42227;DHT22;27892;52.378;13.122;2023-12-22T02:59:48;7.50;70.60
42227;DHT22;27892;52.378;13.122;2023-12-22T03:02:14;7.40;70.30
42227;DHT22;27892;52.378;13.122;2023-12-22T03:04:40;7.40;70.00
42227;DHT22;27892;52.378;13.122;2023-12-22T03:07:06;7.40;69.70
42227;DHT22;27892;52.378;13.122;2023-12-22T03:09:31;7.40;69.90
42227;DHT22;27892;52.378;13.122;2023-12-22T03:11:58;7.30;69.80
42227;DHT22;27892;52.378;13.122;2023-12-22T03:14:30;7.30;69.60
42227;DHT22;27892;52.378;13.122;2023-12-22T03:17:02;7.30;70.30
42227;DHT22;27892;52.378;13.122;2023-12-22T03:19:28;7.40;70.60
42227;DHT22;27892;52.378;13.122;2023-12-22T03:21:54;7.30;69.80
42227;DHT22;27892;52.378;13.122;2023-12-22T03:24:19;7.30;70.00
42227;DHT22;27892;52.378;13.122;2023-12-22T03:26:56;7.30;69.50
42227;DHT22;27892;52.378;13.122;2023-12-22T03:29:22;7.20;68.90
42227;DHT22;27892;52.378;13.122;2023-12-22T03:31:47;7.20;68.80
42227;DHT22;27892;52.378;13.122;2023-12-22T03:34:13;7.20;68.80
42227;DHT22;27892;52.378;13.122;2023-12-22T03:36:39;7.20;68.50
42227;DHT22;27892;52.378;13.122;2023-12-22T03:39:05;7.20;68.40
42227;DHT22;27892;52.378;13.122;2023-12-22T03:41:31;7.20;68.60
42227;DHT22;27892;52.378;13.122;2023-12-22T03:43:57;7.30;68.50
42227;DHT22;27892;52.378;13.122;2023-12-22T03:46:23;7.30;68.50
42227;DHT22;27892;52.378;13.122;2023-12-22T03:48:52;7.30;68.30
42227;DHT22;27892;52.378;13.122;2023-12-22T03:51:18;7.40;68.50
42227;DHT22;27892;52.378;13.122;2023-12-22T03:53:44;7.40;68.10
42227;DHT22;27892;52.378;13.122;2023-12-22T03:56:10;7.30;68.00
42227;DHT22;27892;52.378;13.122;2023-12-22T03:58:37;7.40;68.30
42227;DHT22;27892;52.378;13.122;2023-12-22T04:01:03;7.40;68.30
42227;DHT22;27892;52.378;13.122;2023-12-22T04:03:28;7.30;69.00
42227;DHT22;27892;52.378;13.122;2023-12-22T04:05:54;7.40;69.10
42227;DHT22;27892;52.378;13.122;2023-12-22T04:08:20;7.40;69.70
42227;DHT22;27892;52.378;13.122;2023-12-22T04:10:46;7.40;70.10
42227;DHT22;27892;52.378;13.122;2023-12-22T04:13:12;7.40;70.50
42227;DHT22;27892;52.378;13.122;2023-12-22T04:15:38;7.40;70.60
42227;DHT22;27892;52.378;13.122;2023-12-22T04:18:04;7.50;70.90
42227;DHT22;27892;52.378;13.122;2023-12-22T04:20:30;7.50;70.90
42227;DHT22;27892;52.378;13.122;2023-12-22T04:22:56;7.50;71.10
42227;DHT22;27892;52.378;13.122;2023-12-22T04:25:21;7.50;71.00
42227;DHT22;27892;52.378;13.122;2023-12-22T04:27:48;7.50;70.80
42227;DHT22;27892;52.378;13.122;2023-12-22T04:30:15;7.50;71.20
42227;DHT22;27892;52.378;13.122;2023-12-22T04:32:41;7.40;70.70
42227;DHT22;27892;52.378;13.122;2023-12-22T04:35:07;7.40;71.00
42227;DHT22;27892;52.378;13.122;2023-12-22T04:37:33;7.40;71.30
42227;DHT22;27892;52.378;13.122;2023-12-22T04:39:58;7.10;71.70
42227;DHT22;27892;52.378;13.122;2023-12-22T04:42:24;7.10;72.80
42227;DHT22;27892;52.378;13.122;2023-12-22T04:44:51;7.00;73.30
42227;DHT22;27892;52.378;13.122;2023-12-22T04:47:17;7.00;73.90
42227;DHT22;27892;52.378;13.122;2023-12-22T04:49:43;6.80;73.40
42227;DHT22;27892;52.378;13.122;2023-12-22T04:52:09;6.70;73.90
42227;DHT22;27892;52.378;13.122;2023-12-22T04:54:35;6.50;74.50
42227;DHT22;27892;52.378;13.122;2023-12-22T04:57:00;6.40;75.20
42227;DHT22;27892;52.378;13.122;2023-12-22T04:59:26;6.20;76.20
42227;DHT22;27892;52.378;13.122;2023-12-22T05:01:52;5.90;76.40
42227;DHT22;27892;52.378;13.122;2023-12-22T05:04:17;5.90;77.40
42227;DHT22;27892;52.378;13.122;2023-12-22T05:06:43;5.90;77.70
42227;DHT22;27892;52.378;13.122;2023-12-22T05:09:11;5.80;78.20
42227;DHT22;27892;52.378;13.122;2023-12-22T05:11:37;5.90;78.90
42227;DHT22;27892;52.378;13.122;2023-12-22T05:14:02;6.00;78.90
42227;DHT22;27892;52.378;13.122;2023-12-22T05:16:28;6.10;79.50
42227;DHT22;27892;52.378;13.122;2023-12-22T05:18:57;6.10;79.10
42227;DHT22;27892;52.378;13.122;2023-12-22T05:21:23;6.10;78.80
42227;DHT22;27892;52.378;13.122;2023-12-22T05:23:49;6.00;78.80
42227;DHT22;27892;52.378;13.122;2023-12-22T05:26:19;6.00;79.40
42227;DHT22;27892;52.378;13.122;2023-12-22T05:28:46;6.00;79.70
42227;DHT22;27892;52.378;13.122;2023-12-22T05:31:12;6.00;80.10
42227;DHT22;27892;52.378;13.122;2023-12-22T05:33:37;6.10;80.40
42227;DHT22;27892;52.378;13.122;2023-12-22T05:36:04;6.10;80.00
42227;DHT22;27892;52.378;13.122;2023-12-22T05:38:29;6.10;80.20
42227;DHT22;27892;52.378;13.122;2023-12-22T05:40:56;6.10;81.00
42227;DHT22;27892;52.378;13.122;2023-12-22T05:43:21;6.10;79.50
42227;DHT22;27892;52.378;13.122;2023-12-22T05:45:47;6.10;79.50
42227;DHT22;27892;52.378;13.122;2023-12-22T05:48:13;6.00;78.90
42227;DHT22;27892;52.378;13.122;2023-12-22T05:50:38;6.00;78.50
42227;DHT22;27892;52.378;13.122;2023-12-22T05:53:04;6.00;78.20
42227;DHT22;27892;52.378;13.122;2023-12-22T05:55:30;5.90;77.50
42227;DHT22;27892;52.378;13.122;2023-12-22T05:57:55;5.90;77.70
42227;DHT22;27892;52.378;13.122;2023-12-22T06:00:22;5.90;76.90
42227;DHT22;27892;52.378;13.122;2023-12-22T06:02:47;6.00;77.00
42227;DHT22;27892;52.378;13.122;2023-12-22T06:05:13;6.00;76.30
42227;DHT22;27892;52.378;13.122;2023-12-22T06:07:40;5.90;76.40
42227;DHT22;27892;52.378;13.122;2023-12-22T06:10:06;5.90;76.10
42227;DHT22;27892;52.378;13.122;2023-12-22T06:12:35;5.80;75.90
42227;DHT22;27892;52.378;13.122;2023-12-22T06:15:00;5.80;75.50
42227;DHT22;27892;52.378;13.122;2023-12-22T06:17:26;5.80;76.30
42227;DHT22;27892;52.378;13.122;2023-12-22T06:19:52;5.90;76.20
42227;DHT22;27892;52.378;13.122;2023-12-22T06:22:17;6.00;76.00
42227;DHT22;27892;52.378;13.122;2023-12-22T06:24:43;6.10;76.10
42227;DHT22;27892;52.378;13.122;2023-12-22T06:27:10;6.20;75.80
42227;DHT22;27892;52.378;13.122;2023-12-22T06:29:35;6.20;75.30
42227;DHT22;27892;52.378;13.122;2023-12-22T06:32:01;6.10;75.30
42227;DHT22;27892;52.378;13.122;2023-12-22T06:34:27;6.20;76.00
42227;DHT22;27892;52.378;13.122;2023-12-22T06:36:52;6.20;76.00
42227;DHT22;27892;52.378;13.122;2023-12-22T06:39:18;6.30;76.10
42227;DHT22;27892;52.378;13.122;2023-12-22T06:41:45;6.30;75.50
42227;DHT22;27892;52.378;13.122;2023-12-22T06:44:10;6.30;75.70
42227;DHT22;27892;52.378;13.122;2023-12-22T06:46:36;6.20;75.40
42227;DHT22;27892;52.378;13.122;2023-12-22T06:49:02;6.20;75.60
42227;DHT22;27892;52.378;13.122;2023-12-22T06:51:29;6.10;75.80
42227;DHT22;27892;52.378;13.122;2023-12-22T06:54:02;6.20;75.40
42227;DHT22;27892;52.378;13.122;2023-12-22T06:56:29;6.30;75.30
42227;DHT22;27892;52.378;13.122;2023-12-22T06:58:56;6.20;75.00
42227;DHT22;27892;52.378;13.122;2023-12-22T07:03:54;6.20;74.50
42227;DHT22;27892;52.378;13.122;2023-12-22T07:06:21;6.10;73.80
42227;DHT22;27892;52.378;13.122;2023-12-22T07:11:38;6.40;73.80
42227;DHT22;27892;52.378;13.122;2023-12-22T07:14:03;6.30;74.60
42227;DHT22;27892;52.378;13.122;2023-12-22T07:16:29;6.40;74.40
42227;DHT22;27892;52.378;13.122;2023-12-22T07:18:55;6.50;74.60
42227;DHT22;27892;52.378;13.122;2023-12-22T07:21:20;6.50;74.00
42227;DHT22;27892;52.378;13.122;2023-12-22T07:23:46;6.60;73.30
42227;DHT22;27892;52.378;13.122;2023-12-22T07:26:12;6.60;73.20
42227;DHT22;27892;52.378;13.122;2023-12-22T07:28:38;6.60;72.50
42227;DHT22;27892;52.378;13.122;2023-12-22T07:31:04;6.60;72.40
42227;DHT22;27892;52.378;13.122;2023-12-22T07:33:31;6.60;71.30
42227;DHT22;27892;52.378;13.122;2023-12-22T07:35:56;6.70;71.20
42227;DHT22;27892;52.378;13.122;2023-12-22T07:38:22;6.80;70.90
42227;DHT22;27892;52.378;13.122;2023-12-22T07:40:48;6.90;70.20
42227;DHT22;27892;52.378;13.122;2023-12-22T07:43:15;6.90;70.10
42227;DHT22;27892;52.378;13.122;2023-12-22T07:45:41;6.80;69.80
42227;DHT22;27892;52.378;13.122;2023-12-22T07:48:07;6.90;70.00
42227;DHT22;27892;52.378;13.122;2023-12-22T07:50:33;6.70;69.40
42227;DHT22;27892;52.378;13.122;2023-12-22T07:52:59;6.80;69.90
42227;DHT22;27892;52.378;13.122;2023-12-22T07:55:25;6.90;69.60
42227;DHT22;27892;52.378;13.122;2023-12-22T07:57:50;6.80;69.10
42227;DHT22;27892;52.378;13.122;2023-12-22T08:00:17;6.70;69.40
42227;DHT22;27892;52.378;13.122;2023-12-22T08:02:43;6.60;70.30
42227;DHT22;27892;52.378;13.122;2023-12-22T08:05:09;6.60;70.80
42227;DHT22;27892;52.378;13.122;2023-12-22T08:07:36;6.70;71.00
42227;DHT22;27892;52.378;13.122;2023-12-22T08:10:02;6.80;71.30
42227;DHT22;27892;52.378;13.122;2023-12-22T08:12:28;6.70;71.00
42227;DHT22;27892;52.378;13.122;2023-12-22T08:14:54;6.60;71.60
42227;DHT22;27892;52.378;13.122;2023-12-22T08:17:20;6.40;72.10
42227;DHT22;27892;52.378;13.122;2023-12-22T08:19:46;6.50;72.50
42227;DHT22;27892;52.378;13.122;2023-12-22T08:22:12;6.40;72.10
42227;DHT22;27892;52.378;13.122;2023-12-22T08:24:41;6.40;72.20
42227;DHT22;27892;52.378;13.122;2023-12-22T08:27:08;6.30;72.20
42227;DHT22;27892;52.378;13.122;2023-12-22T08:29:33;6.30;72.20
42227;DHT22;27892;52.378;13.122;2023-12-22T08:32:00;6.20;72.00
42227;DHT22;27892;52.378;13.122;2023-12-22T08:34:26;6.20;72.10
42227;DHT22;27892;52.378;13.122;2023-12-22T08:36:54;6.20;72.10
42227;DHT22;27892;52.378;13.122;2023-12-22T08:39:20;6.20;71.40
42227;DHT22;27892;52.378;13.122;2023-12-22T08:41:47;6.40;71.50
42227;DHT22;27892;52.378;13.122;2023-12-22T08:44:13;6.40;70.50
42227;DHT22;27892;52.378;13.122;2023-12-22T08:46:43;6.30;69.80
42227;DHT22;27892;52.378;13.122;2023-12-22T08:49:09;6.40;69.70
42227;DHT22;27892;52.378;13.122;2023-12-22T08:51:35;6.40;69.10
42227;DHT22;27892;52.378;13.122;2023-12-22T08:54:00;6.50;68.20
42227;DHT22;27892;52.378;13.122;2023-12-22T08:56:26;6.50;68.00
42227;DHT22;27892;52.378;13.122;2023-12-22T08:58:53;6.60;67.70
42227;DHT22;27892;52.378;13.122;2023-12-22T09:01:21;6.80;67.80
42227;DHT22;27892;52.378;13.122;2023-12-22T09:03:48;6.80;66.20
42227;DHT22;27892;52.378;13.122;2023-12-22T09:06:21;7.00;65.90
42227;DHT22;27892;52.378;13.122;2023-12-22T09:08:47;7.30;65.70
42227;DHT22;27892;52.378;13.122;2023-12-22T09:11:15;7.20;64.60
42227;DHT22;27892;52.378;13.122;2023-12-22T09:13:41;7.30;65.40
42227;DHT22;27892;52.378;13.122;2023-12-22T09:16:08;7.30;64.30
42227;DHT22;27892;52.378;13.122;2023-12-22T09:18:34;7.10;63.00
42227;DHT22;27892;52.378;13.122;2023-12-22T09:21:00;7.10;63.00
42227;DHT22;27892;52.378;13.122;2023-12-22T09:23:26;7.10;63.50
42227;DHT22;27892;52.378;13.122;2023-12-22T09:25:51;7.10;63.70
42227;DHT22;27892;52.378;13.122;2023-12-22T09:28:17;7.30;63.20
42227;DHT22;27892;52.378;13.122;2023-12-22T09:30:43;7.20;62.70
42227;DHT22;27892;52.378;13.122;2023-12-22T09:33:11;7.30;62.90
42227;DHT22;27892;52.378;13.122;2023-12-22T09:35:38;7.30;63.30
42227;DHT22;27892;52.378;13.122;2023-12-22T09:38:07;7.50;63.30
42227;DHT22;27892;52.378;13.122;2023-12-22T09:40:34;7.40;62.60
42227;DHT22;27892;52.378;13.122;2023-12-22T09:43:02;7.30;62.50
42227;DHT22;27892;52.378;13.122;2023-12-22T09:45:30;7.50;62.80
42227;DHT22;27892;52.378;13.122;2023-12-22T09:47:56;7.60;61.80
42227;DHT22;27892;52.378;13.122;2023-12-22T09:50:24;7.90;61.80
42227;DHT22;27892;52.378;13.122;2023-12-22T09:52:51;8.20;60.60
42227;DHT22;27892;52.378;13.122;2023-12-22T09:55:17;8.50;58.90
42227;DHT22;27892;52.378;13.122;2023-12-22T09:57:43;8.90;58.60
42227;DHT22;27892;52.378;13.122;2023-12-22T10:00:10;9.40;57.50
42227;DHT22;27892;52.378;13.122;2023-12-22T10:02:39;9.70;55.40
42227;DHT22;27892;52.378;13.122;2023-12-22T10:05:05;9.60;55.00
42227;DHT22;27892;52.378;13.122;2023-12-22T10:07:31;9.10;55.40
42227;DHT22;27892;52.378;13.122;2023-12-22T10:09:59;8.90;56.40
42227;DHT22;27892;52.378;13.122;2023-12-22T10:12:27;8.90;56.60
42227;DHT22;27892;52.378;13.122;2023-12-22T10:14:56;8.80;57.00
42227;DHT22;27892;52.378;13.122;2023-12-22T10:17:25;8.80;57.60
42227;DHT22;27892;52.378;13.122;2023-12-22T10:19:51;8.70;57.30
42227;DHT22;27892;52.378;13.122;2023-12-22T10:22:18;8.70;57.30
42227;DHT22;27892;52.378;13.122;2023-12-22T10:24:45;8.60;57.10
42227;DHT22;27892;52.378;13.122;2023-12-22T10:27:17;8.60;57.60
42227;DHT22;27892;52.378;13.122;2023-12-22T10:29:54;8.80;57.30
42227;DHT22;27892;52.378;13.122;2023-12-22T10:32:21;9.00;57.60
42227;DHT22;27892;52.378;13.122;2023-12-22T10:34:48;9.20;56.60
42227;DHT22;27892;52.378;13.122;2023-12-22T10:37:14;9.00;55.80
42227;DHT22;27892;52.378;13.122;2023-12-22T10:39:40;9.00;56.50
42227;DHT22;27892;52.378;13.122;2023-12-22T10:42:06;8.90;56.30
42227;DHT22;27892;52.378;13.122;2023-12-22T10:44:32;8.80;57.20
42227;DHT22;27892;52.378;13.122;2023-12-22T10:46:58;8.70;56.80
42227;DHT22;27892;52.378;13.122;2023-12-22T10:49:24;8.50;57.20
42227;DHT22;27892;52.378;13.122;2023-12-22T10:51:51;8.50;57.60
42227;DHT22;27892;52.378;13.122;2023-12-22T10:54:17;8.40;57.70
42227;DHT22;27892;52.378;13.122;2023-12-22T10:56:43;8.20;58.20
42227;DHT22;27892;52.378;13.122;2023-12-22T10:59:09;8.30;58.30
42227;DHT22;27892;52.378;13.122;2023-12-22T11:01:36;8.40;58.30
42227;DHT22;27892;52.378;13.122;2023-12-22T11:04:06;8.40;57.60
42227;DHT22;27892;52.378;13.122;2023-12-22T11:06:37;8.50;57.50
42227;DHT22;27892;52.378;13.122;2023-12-22T11:09:07;8.50;58.10
42227;DHT22;27892;52.378;13.122;2023-12-22T11:11:40;8.70;57.00
42227;DHT22;27892;52.378;13.122;2023-12-22T11:14:06;8.80;56.80
42227;DHT22;27892;52.378;13.122;2023-12-22T11:16:35;8.80;56.60
42227;DHT22;27892;52.378;13.122;2023-12-22T11:19:02;8.90;56.70
42227;DHT22;27892;52.378;13.122;2023-12-22T11:21:29;8.80;56.90
42227;DHT22;27892;52.378;13.122;2023-12-22T11:23:56;8.90;57.00
42227;DHT22;27892;52.378;13.122;2023-12-22T11:26:25;9.00;56.70
42227;DHT22;27892;52.378;13.122;2023-12-22T11:28:52;9.10;56.60
42227;DHT22;27892;52.378;13.122;2023-12-22T11:31:18;9.20;56.40
42227;DHT22;27892;52.378;13.122;2023-12-22T11:33:45;9.40;56.20
42227;DHT22;27892;52.378;13.122;2023-12-22T11:36:12;9.40;55.50
42227;DHT22;27892;52.378;13.122;2023-12-22T11:38:39;9.10;55.20
42227;DHT22;27892;52.378;13.122;2023-12-22T11:41:06;9.10;55.70
42227;DHT22;27892;52.378;13.122;2023-12-22T11:43:35;9.30;55.90
42227;DHT22;27892;52.378;13.122;2023-12-22T11:46:04;9.20;55.40
42227;DHT22;27892;52.378;13.122;2023-12-22T11:48:30;9.10;55.40
42227;DHT22;27892;52.378;13.122;2023-12-22T11:50:57;9.00;56.10
42227;DHT22;27892;52.378;13.122;2023-12-22T11:53:24;9.00;56.00
42227;DHT22;27892;52.378;13.122;2023-12-22T11:56:07;9.10;55.30
42227;DHT22;27892;52.378;13.122;2023-12-22T12:01:09;8.70;56.40
42227;DHT22;27892;52.378;13.122;2023-12-22T12:03:42;8.90;55.90
42227;DHT22;27892;52.378;13.122;2023-12-22T12:08:37;9.40;55.90
42227;DHT22;27892;52.378;13.122;2023-12-22T12:11:02;9.80;54.70
42227;DHT22;27892;52.378;13.122;2023-12-22T12:13:31;9.90;53.50
42227;DHT22;27892;52.378;13.122;2023-12-22T12:15:58;9.70;54.00
42227;DHT22;27892;52.378;13.122;2023-12-22T12:18:30;9.70;54.40
42227;DHT22;27892;52.378;13.122;2023-12-22T12:20:56;9.50;54.90
42227;DHT22;27892;52.378;13.122;2023-12-22T12:23:26;9.80;55.90
42227;DHT22;27892;52.378;13.122;2023-12-22T12:25:53;10.10;54.10
42227;DHT22;27892;52.378;13.122;2023-12-22T12:28:26;10.50;53.40
42227;DHT22;27892;52.378;13.122;2023-12-22T12:31:00;10.80;52.30
42227;DHT22;27892;52.378;13.122;2023-12-22T12:33:27;10.80;52.30
42227;DHT22;27892;52.378;13.122;2023-12-22T12:35:54;10.40;51.60
42227;DHT22;27892;52.378;13.122;2023-12-22T12:38:24;10.20;52.70
42227;DHT22;27892;52.378;13.122;2023-12-22T12:40:54;9.90;54.00
42227;DHT22;27892;52.378;13.122;2023-12-22T12:43:22;9.60;54.50
42227;DHT22;27892;52.378;13.122;2023-12-22T12:45:48;9.40;55.10
42227;DHT22;27892;52.378;13.122;2023-12-22T12:48:16;9.30;55.60
42227;DHT22;27892;52.378;13.122;2023-12-22T12:50:44;9.20;56.00
42227;DHT22;27892;52.378;13.122;2023-12-22T12:53:10;9.10;56.00
42227;DHT22;27892;52.378;13.122;2023-12-22T12:55:36;9.00;56.00
42227;DHT22;27892;52.378;13.122;2023-12-22T12:58:01;9.00;56.10
42227;DHT22;27892;52.378;13.122;2023-12-22T13:00:32;8.90;55.90
42227;DHT22;27892;52.378;13.122;2023-12-22T13:03:03;8.90;56.20
42227;DHT22;27892;52.378;13.122;2023-12-22T13:05:30;8.80;55.90
42227;DHT22;27892;52.378;13.122;2023-12-22T13:08:12;8.70;56.20
42227;DHT22;27892;52.378;13.122;2023-12-22T13:10:44;8.80;56.10
42227;DHT22;27892;52.378;13.122;2023-12-22T13:13:10;8.70;56.10
42227;DHT22;27892;52.378;13.122;2023-12-22T13:15:40;8.70;56.00
42227;DHT22;27892;52.378;13.122;2023-12-22T13:18:07;8.80;56.30
42227;DHT22;27892;52.378;13.122;2023-12-22T13:20:33;8.80;56.10
42227;DHT22;27892;52.378;13.122;2023-12-22T13:23:00;8.90;56.00
42227;DHT22;27892;52.378;13.122;2023-12-22T13:25:26;8.80;56.20
42227;DHT22;27892;52.378;13.122;2023-12-22T13:27:52;8.90;56.40
42227;DHT22;27892;52.378;13.122;2023-12-22T13:30:37;8.80;56.80
42227;DHT22;27892;52.378;13.122;2023-12-22T13:33:06;8.90;57.00
42227;DHT22;27892;52.378;13.122;2023-12-22T13:35:33;8.80;57.30
42227;DHT22;27892;52.378;13.122;2023-12-22T13:38:05;8.80;57.20
42227;DHT22;27892;52.378;13.122;2023-12-22T13:40:31;8.50;57.60
42227;DHT22;27892;52.378;13.122;2023-12-22T13:42:57;8.50;58.10
42227;DHT22;27892;52.378;13.122;2023-12-22T13:45:24;8.30;58.30
42227;DHT22;27892;52.378;13.122;2023-12-22T13:47:50;8.20;58.50
42227;DHT22;27892;52.378;13.122;2023-12-22T13:50:17;8.20;58.40
42227;DHT22;27892;52.378;13.122;2023-12-22T13:52:44;8.10;58.60
42227;DHT22;27892;52.378;13.122;2023-12-22T13:55:11;8.00;58.40
42227;DHT22;27892;52.378;13.122;2023-12-22T13:57:37;8.10;58.50
42227;DHT22;27892;52.378;13.122;2023-12-22T14:00:26;8.00;58.30
42227;DHT22;27892;52.378;13.122;2023-12-22T14:02:52;7.80;58.10
42227;DHT22;27892;52.378;13.122;2023-12-22T14:05:21;7.70;58.30
42227;DHT22;27892;52.378;13.122;2023-12-22T14:07:47;7.60;58.60
42227;DHT22;27892;52.378;13.122;2023-12-22T14:10:14;7.50;58.80
42227;DHT22;27892;52.378;13.122;2023-12-22T14:12:40;7.50;58.80
42227;DHT22;27892;52.378;13.122;2023-12-22T14:15:07;7.50;58.60
42227;DHT22;27892;52.378;13.122;2023-12-22T14:17:33;7.50;58.80
42227;DHT22;27892;52.378;13.122;2023-12-22T14:19:59;7.40;58.40
42227;DHT22;27892;52.378;13.122;2023-12-22T14:22:25;7.30;58.40
42227;DHT22;27892;52.378;13.122;2023-12-22T14:24:51;7.30;58.80
42227;DHT22;27892;52.378;13.122;2023-12-22T14:27:17;7.30;58.80
42227;DHT22;27892;52.378;13.122;2023-12-22T14:29:46;7.30;58.80
42227;DHT22;27892;52.378;13.122;2023-12-22T14:32:11;7.20;58.80
42227;DHT22;27892;52.378;13.122;2023-12-22T14:34:38;7.20;59.30
42227;DHT22;27892;52.378;13.122;2023-12-22T14:37:04;7.10;59.30
42227;DHT22;27892;52.378;13.122;2023-12-22T14:39:30;7.10;59.50
42227;DHT22;27892;52.378;13.122;2023-12-22T14:41:57;7.20;59.40
42227;DHT22;27892;52.378;13.122;2023-12-22T14:44:22;7.10;59.50
42227;DHT22;27892;52.378;13.122;2023-12-22T14:46:48;7.00;60.00
42227;DHT22;27892;52.378;13.122;2023-12-22T14:49:14;7.10;59.80
42227;DHT22;27892;52.378;13.122;2023-12-22T14:51:39;7.20;59.60
42227;DHT22;27892;52.378;13.122;2023-12-22T14:54:06;7.10;59.70
42227;DHT22;27892;52.378;13.122;2023-12-22T14:56:32;7.20;59.70
42227;DHT22;27892;52.378;13.122;2023-12-22T14:58:58;7.30;59.60
42227;DHT22;27892;52.378;13.122;2023-12-22T15:01:24;7.30;59.40
42227;DHT22;27892;52.378;13.122;2023-12-22T15:03:50;7.30;59.60
42227;DHT22;27892;52.378;13.122;2023-12-22T15:06:16;7.30;59.70
42227;DHT22;27892;52.378;13.122;2023-12-22T15:08:42;7.40;59.80
42227;DHT22;27892;52.378;13.122;2023-12-22T15:11:07;7.30;59.80
42227;DHT22;27892;52.378;13.122;2023-12-22T15:13:34;7.40;60.10
42227;DHT22;27892;52.378;13.122;2023-12-22T15:16:06;7.40;60.00
42227;DHT22;27892;52.378;13.122;2023-12-22T15:18:32;7.50;59.90
42227;DHT22;27892;52.378;13.122;2023-12-22T15:20:58;7.50;60.00
42227;DHT22;27892;52.378;13.122;2023-12-22T15:23:23;7.40;59.90
42227;DHT22;27892;52.378;13.122;2023-12-22T15:25:49;7.40;60.10
42227;DHT22;27892;52.378;13.122;2023-12-22T15:28:15;7.40;60.20
42227;DHT22;27892;52.378;13.122;2023-12-22T15:30:41;7.50;60.40
42227;DHT22;27892;52.378;13.122;2023-12-22T15:33:07;7.40;60.50
42227;DHT22;27892;52.378;13.122;2023-12-22T15:35:33;7.40;61.00
42227;DHT22;27892;52.378;13.122;2023-12-22T15:37:59;7.40;61.20